Time;durP1;ratioP1;P1;durP2;ratioP2;P2;SDS_P1;SDS_P2;PMS_P1;PMS_P2;Temp;Humidity;BMP_temperature;BMP_pressure;BME280_temperature;BME280_humidity;BME280_pressure;Samples;Min_cycle;Max_cycle;Signal;HPM_P1;HPM_P2
2023/10/22 05:09:33;;;;;;;1999.90;999.90;;;;;;;;;;5373135;23;1238378;-66
2023/10/22 05:11:59;;;;;;;1999.90;999.90;;;;;;;;;;4952431;29;20114;-65
2023/10/22 05:14:25;;;;;;;1999.90;999.90;;;;;;;;;;4952412;29;20031;-67
2023/10/22 05:16:52;;;;;;;1999.90;999.90;;;;;;;;;;4953114;29;20027;-72
2023/10/22 05:19:18;;;;;;;1999.90;999.90;;;;;;;;;;4956692;29;20034;-68
2023/10/22 05:21:44;;;;;;;1999.90;999.90;;;;;;;;;;4956772;29;20020;-64
2023/10/22 05:24:10;;;;;;;1999.90;999.90;;;;;;;;;;4956364;29;20501;-64
2023/10/22 05:26:36;;;;;;;1999.90;999.90;;;;;;;;;;4956815;29;20114;-63
2023/10/22 05:29:03;;;;;;;1999.90;999.90;;;;;;;;;;4956426;29;20043;-69
2023/10/22 05:31:29;;;;;;;1999.90;999.90;;;;;;;;;;4939212;29;20303;-64
2023/10/22 05:33:55;;;;;;;1999.90;999.90;;;;;;;;;;4956469;29;20436;-65
2023/10/22 05:36:21;;;;;;;1999.90;999.90;;;;;;;;;;4921369;29;20027;-74
2023/10/22 05:38:48;;;;;;;1999.90;999.90;;;;;;;;;;4956529;29;20119;-76
2023/10/22 05:41:21;;;;;;;1999.90;999.90;;;;;;;;;;4955740;29;20022;-63
2023/10/22 05:43:47;;;;;;;1999.90;999.90;;;;;;;;;;4956122;29;20047;-71
2023/10/22 05:46:13;;;;;;;1999.90;999.90;;;;;;;;;;4956314;29;20020;-70
2023/10/22 05:48:39;;;;;;;1999.90;999.90;;;;;;;;;;4956230;29;20043;-64
2023/10/22 05:51:05;;;;;;;1999.90;999.90;;;;;;;;;;4956295;29;20031;-64
2023/10/22 05:53:32;;;;;;;1999.90;999.90;;;;;;;;;;4956199;29;20027;-64
2023/10/22 05:55:58;;;;;;;1999.90;999.90;;;;;;;;;;4956201;29;20110;-65
2023/10/22 05:58:24;;;;;;;1999.90;999.90;;;;;;;;;;4955975;29;20031;-77
2023/10/22 06:00:50;;;;;;;1999.90;999.90;;;;;;;;;;4955701;29;20027;-76
2023/10/22 06:03:16;;;;;;;1999.90;999.90;;;;;;;;;;4955254;29;20042;-70
2023/10/22 06:05:42;;;;;;;1999.90;999.90;;;;;;;;;;4955283;29;20471;-67
2023/10/22 06:08:08;;;;;;;1999.90;999.90;;;;;;;;;;4955363;29;20024;-64
2023/10/22 06:10:41;;;;;;;1999.90;999.90;;;;;;;;;;4964116;28;20549;-63
2023/10/22 06:13:07;;;;;;;1999.90;999.90;;;;;;;;;;4974279;28;20031;-74
2023/10/22 06:15:36;;;;;;;1999.90;999.90;;;;;;;;;;4974491;28;20050;-76
2023/10/22 06:18:02;;;;;;;1999.90;999.90;;;;;;;;;;4967762;28;20107;-64
2023/10/22 06:20:32;;;;;;;1999.90;999.90;;;;;;;;;;4963502;28;20378;-64
2023/10/22 06:22:58;;;;;;;1999.90;999.90;;;;;;;;;;4975002;28;20027;-64
2023/10/22 06:25:24;;;;;;;1999.90;999.90;;;;;;;;;;4974633;28;20050;-65
2023/10/22 06:27:51;;;;;;;1999.90;999.90;;;;;;;;;;4974494;28;20058;-69
2023/10/22 06:30:22;;;;;;;1999.90;999.90;;;;;;;;;;4973958;28;20046;-76
2023/10/22 06:32:49;;;;;;;1999.90;999.90;;;;;;;;;;4975271;28;20025;-76
2023/10/22 06:35:15;;;;;;;1999.90;999.90;;;;;;;;;;4974524;28;20060;-64
2023/10/22 06:37:41;;;;;;;1999.90;999.90;;;;;;;;;;4975127;28;20070;-63
2023/10/22 06:40:07;;;;;;;1999.90;999.90;;;;;;;;;;4974915;28;20038;-64
2023/10/22 06:42:33;;;;;;;1999.90;999.90;;;;;;;;;;4974376;28;20074;-64
2023/10/22 06:45:00;;;;;;;1999.90;999.90;;;;;;;;;;4974718;28;20101;-63
2023/10/22 06:47:28;;;;;;;1999.90;999.90;;;;;;;;;;4956693;28;20488;-68
2023/10/22 06:49:54;;;;;;;1999.90;999.90;;;;;;;;;;4974384;28;20537;-63
2023/10/22 06:52:20;;;;;;;1999.90;999.90;;;;;;;;;;4974456;28;20031;-62
2023/10/22 06:54:46;;;;;;;1999.90;999.90;;;;;;;;;;4974447;28;20038;-62
2023/10/22 06:57:12;;;;;;;1999.90;999.90;;;;;;;;;;4974122;28;20023;-64
2023/10/22 06:59:38;;;;;;;1999.90;999.90;;;;;;;;;;4974458;28;20023;-70
2023/10/22 07:02:04;;;;;;;1999.90;999.90;;;;;;;;;;4974355;28;20086;-63
2023/10/22 07:04:30;;;;;;;1999.90;999.90;;;;;;;;;;4974134;28;20035;-67
2023/10/22 07:06:56;;;;;;;1999.90;999.90;;;;;;;;;;4974274;28;20206;-79
2023/10/22 07:09:22;;;;;;;1999.90;999.90;;;;;;;;;;4973822;28;20364;-76
2023/10/22 07:11:49;;;;;;;1999.90;999.90;;;;;;;;;;4973825;28;20034;-63
2023/10/22 07:14:15;;;;;;;1999.90;999.90;;;;;;;;;;4973565;28;20023;-63
2023/10/22 07:16:41;;;;;;;1999.90;999.90;;;;;;;;;;4973953;28;20045;-74
2023/10/22 07:19:07;;;;;;;1999.90;999.90;;;;;;;;;;4973701;28;20031;-63
2023/10/22 07:21:33;;;;;;;1999.90;999.90;;;;;;;;;;4973663;28;20031;-68
2023/10/22 07:23:59;;;;;;;1999.90;999.90;;;;;;;;;;4973586;28;20105;-62
2023/10/22 07:26:26;;;;;;;1999.90;999.90;;;;;;;;;;4973822;28;20084;-73
2023/10/22 07:28:52;;;;;;;1999.90;999.90;;;;;;;;;;4973366;28;20035;-62
2023/10/22 07:31:18;;;;;;;1999.90;999.90;;;;;;;;;;4972200;28;20050;-62
2023/10/22 07:33:44;;;;;;;1999.90;999.90;;;;;;;;;;4973194;28;20033;-63
2023/10/22 07:36:11;;;;;;;1999.90;999.90;;;;;;;;;;4973425;28;20030;-68
2023/10/22 07:38:40;;;;;;;1999.90;999.90;;;;;;;;;;4973059;28;20107;-63
2023/10/22 07:41:11;;;;;;;1999.90;999.90;;;;;;;;;;4971586;28;20035;-62
2023/10/22 07:43:37;;;;;;;1999.90;999.90;;;;;;;;;;4969873;28;20398;-63
2023/10/22 07:46:04;;;;;;;1999.90;999.90;;;;;;;;;;4973357;28;20430;-73
2023/10/22 07:48:30;;;;;;;1999.90;999.90;;;;;;;;;;4971285;28;20031;-65
2023/10/22 07:51:07;;;;;;;1999.90;999.90;;;;;;;;;;4971369;28;20086;-67
2023/10/22 07:53:33;;;;;;;1999.90;999.90;;;;;;;;;;4968089;28;20055;-62
2023/10/22 07:55:59;;;;;;;1999.90;999.90;;;;;;;;;;4970234;28;20041;-76
2023/10/22 07:58:25;;;;;;;1999.90;999.90;;;;;;;;;;4972659;28;20102;-65
2023/10/22 08:00:51;;;;;;;1999.90;999.90;;;;;;;;;;4956622;28;20364;-62
2023/10/22 08:03:17;;;;;;;1999.90;999.90;;;;;;;;;;4953396;29;20462;-64
2023/10/22 08:05:43;;;;;;;1999.90;999.90;;;;;;;;;;4953194;29;20106;-63
2023/10/22 08:08:09;;;;;;;1999.90;999.90;;;;;;;;;;4968245;28;20079;-66
2023/10/22 08:10:35;;;;;;;1999.90;999.90;;;;;;;;;;4971840;28;20125;-62
2023/10/22 08:13:01;;;;;;;1999.90;999.90;;;;;;;;;;4971551;28;20037;-64
2023/10/22 08:15:27;;;;;;;1999.90;999.90;;;;;;;;;;4971461;28;20027;-66
2023/10/22 08:17:53;;;;;;;1999.90;999.90;;;;;;;;;;4971840;28;20023;-64
2023/10/22 08:20:19;;;;;;;1999.90;999.90;;;;;;;;;;4974995;28;20031;-64
2023/10/22 08:22:46;;;;;;;1999.90;999.90;;;;;;;;;;4976519;28;20035;-62
2023/10/22 08:25:12;;;;;;;1999.90;999.90;;;;;;;;;;4974675;28;20035;-65
2023/10/22 08:27:38;;;;;;;1999.90;999.90;;;;;;;;;;4976842;28;20030;-65
2023/10/22 08:30:04;;;;;;;1999.90;999.90;;;;;;;;;;4972465;28;20039;-65
2023/10/22 08:32:30;;;;;;;1999.90;999.90;;;;;;;;;;4972492;28;20382;-63
2023/10/22 08:34:57;;;;;;;1999.90;999.90;;;;;;;;;;4972452;28;20383;-63
2023/10/22 08:37:23;;;;;;;1999.90;999.90;;;;;;;;;;4973429;28;20491;-63
2023/10/22 08:39:49;;;;;;;1999.90;999.90;;;;;;;;;;4972704;28;20410;-62
2023/10/22 08:42:19;;;;;;;1999.90;999.90;;;;;;;;;;4971842;28;20501;-72
2023/10/22 08:44:46;;;;;;;1999.90;999.90;;;;;;;;;;4972176;28;20086;-65
2023/10/22 08:47:12;;;;;;;1999.90;999.90;;;;;;;;;;4972022;28;20019;-74
2023/10/22 08:49:41;;;;;;;1999.90;999.90;;;;;;;;;;4971619;28;20114;-67
2023/10/22 08:52:08;;;;;;;1999.90;999.90;;;;;;;;;;4971939;28;20050;-63
2023/10/22 08:54:35;;;;;;;1999.90;999.90;;;;;;;;;;4972098;28;20022;-65
2023/10/22 08:57:02;;;;;;;1999.90;999.90;;;;;;;;;;4972108;28;20027;-64
2023/10/22 08:59:28;;;;;;;1999.90;999.90;;;;;;;;;;4971923;28;20565;-70
2023/10/22 09:01:54;;;;;;;1999.90;999.90;;;;;;;;;;4971397;28;20030;-68
2023/10/22 09:04:20;;;;;;;1999.90;999.90;;;;;;;;;;4971862;28;20383;-62
2023/10/22 09:06:46;;;;;;;1999.90;999.90;;;;;;;;;;4971862;28;20031;-62
2023/10/22 09:09:29;;;;;;;1999.90;999.90;;;;;;;;;;4971411;28;20035;-64
2023/10/22 09:11:55;;;;;;;1999.90;999.90;;;;;;;;;;4971147;28;20035;-62
2023/10/22 09:14:22;;;;;;;1999.90;999.90;;;;;;;;;;4971746;28;20055;-63
2023/10/22 09:16:49;;;;;;;1999.90;999.90;;;;;;;;;;4970338;28;20784;-63
2023/10/22 09:19:15;;;;;;;1999.90;999.90;;;;;;;;;;4971396;28;20031;-64
2023/10/22 09:21:45;;;;;;;1999.90;999.90;;;;;;;;;;4971057;28;20115;-63
2023/10/22 09:24:11;;;;;;;1999.90;999.90;;;;;;;;;;4971783;28;20170;-64
2023/10/22 09:26:42;;;;;;;1999.90;999.90;;;;;;;;;;4971467;28;20023;-64
2023/10/22 09:29:08;;;;;;;1999.90;999.90;;;;;;;;;;4971359;28;20445;-63
2023/10/22 09:31:34;;;;;;;1999.90;999.90;;;;;;;;;;4971156;28;20509;-64
2023/10/22 09:34:00;;;;;;;1999.90;999.90;;;;;;;;;;4971323;28;20054;-64
2023/10/22 09:36:26;;;;;;;1999.90;999.90;;;;;;;;;;4971693;28;20031;-64
2023/10/22 09:38:52;;;;;;;1999.90;999.90;;;;;;;;;;4971597;28;20034;-63
2023/10/22 09:41:29;;;;;;;1999.90;999.90;;;;;;;;;;4971070;28;20041;-63
2023/10/22 09:43:56;;;;;;;1999.90;999.90;;;;;;;;;;4971024;28;20055;-65
2023/10/22 09:46:24;;;;;;;1999.90;999.90;;;;;;;;;;4971238;28;20038;-63
2023/10/22 09:48:50;;;;;;;1999.90;999.90;;;;;;;;;;4971240;28;20027;-64
2023/10/22 09:51:17;;;;;;;1999.90;999.90;;;;;;;;;;4971295;28;20046;-73
2023/10/22 09:53:46;;;;;;;1999.90;999.90;;;;;;;;;;4971365;28;20110;-64
2023/10/22 09:56:17;;;;;;;1999.90;999.90;;;;;;;;;;4971054;28;20491;-68
2023/10/22 09:58:44;;;;;;;1999.90;999.90;;;;;;;;;;4971262;28;20062;-64
2023/10/22 10:01:11;;;;;;;1999.90;999.90;;;;;;;;;;4971288;28;20019;-64
2023/10/22 10:03:38;;;;;;;1999.90;999.90;;;;;;;;;;4971268;28;20142;-64
2023/10/22 10:06:06;;;;;;;1999.90;999.90;;;;;;;;;;4974342;28;20027;-65
2023/10/22 10:08:32;;;;;;;1999.90;999.90;;;;;;;;;;4974758;28;20062;-72
2023/10/22 10:10:58;;;;;;;1999.90;999.90;;;;;;;;;;4974280;28;20061;-63
2023/10/22 10:13:24;;;;;;;1999.90;999.90;;;;;;;;;;4974981;28;20039;-65
2023/10/22 10:16:01;;;;;;;1999.90;999.90;;;;;;;;;;4974458;28;20022;-70
2023/10/22 10:19:03;;;;;;;1999.90;999.90;;;;;;;;;;4974748;28;20038;-63
2023/10/22 10:21:36;;;;;;;1999.90;999.90;;;;;;;;;;4877483;29;20033;-65
2023/10/22 10:24:22;;;;;;;1999.90;999.90;;;;;;;;;;4877370;29;20037;-63
2023/10/22 10:26:50;;;;;;;1999.90;999.90;;;;;;;;;;4877397;29;20033;-65
2023/10/22 10:29:18;;;;;;;1999.90;999.90;;;;;;;;;;4877211;29;20485;-62
2023/10/22 10:31:45;;;;;;;1999.90;999.90;;;;;;;;;;4877410;29;20025;-63
2023/10/22 10:34:21;;;;;;;1999.90;999.90;;;;;;;;;;4877022;29;20103;-63
2023/10/22 10:36:48;;;;;;;1999.90;999.90;;;;;;;;;;4877286;29;20039;-63
2023/10/22 10:39:33;;;;;;;1999.90;999.90;;;;;;;;;;4876811;29;20426;-64
2023/10/22 10:41:59;;;;;;;1999.90;999.90;;;;;;;;;;4876416;29;20045;-63
2023/10/22 10:44:25;;;;;;;1999.90;999.90;;;;;;;;;;4876732;29;20029;-64
2023/10/22 10:46:51;;;;;;;1999.90;999.90;;;;;;;;;;4876938;29;20033;-64
2023/10/22 10:49:37;;;;;;;1999.90;999.90;;;;;;;;;;4876788;29;20186;-64
2023/10/22 10:52:03;;;;;;;1999.90;999.90;;;;;;;;;;4876874;29;20397;-66
2023/10/22 10:54:29;;;;;;;1999.90;999.90;;;;;;;;;;4885028;29;20037;-64
2023/10/22 10:56:57;;;;;;;1999.90;999.90;;;;;;;;;;4969520;28;20023;-70
2023/10/22 10:59:30;;;;;;;1999.90;999.90;;;;;;;;;;4973802;28;20023;-65
2023/10/22 11:01:59;;;;;;;1999.90;999.90;;;;;;;;;;4973755;28;20054;-65
2023/10/22 11:04:25;;;;;;;1999.90;999.90;;;;;;;;;;4974065;28;20054;-67
2023/10/22 11:06:51;;;;;;;1999.90;999.90;;;;;;;;;;4973746;28;20031;-66
2023/10/22 11:09:17;;;;;;;1999.90;999.90;;;;;;;;;;4973535;28;20045;-67
2023/10/22 11:12:00;;;;;;;1999.90;999.90;;;;;;;;;;4973573;28;20047;-69
2023/10/22 11:14:26;;;;;;;1999.90;999.90;;;;;;;;;;4973705;28;20031;-67
2023/10/22 11:16:59;;;;;;;1999.90;999.90;;;;;;;;;;4973042;28;20023;-63
2023/10/22 11:19:25;;;;;;;1999.90;999.90;;;;;;;;;;4974031;28;20491;-73
2023/10/22 11:21:54;;;;;;;1999.90;999.90;;;;;;;;;;4973289;28;20055;-67
2023/10/22 11:24:21;;;;;;;1999.90;999.90;;;;;;;;;;4973815;28;20030;-67
2023/10/22 11:26:47;;;;;;;1999.90;999.90;;;;;;;;;;4973671;28;20490;-63
2023/10/22 11:29:15;;;;;;;1999.90;999.90;;;;;;;;;;4973388;28;20035;-69
2023/10/22 11:31:49;;;;;;;1999.90;999.90;;;;;;;;;;4973442;28;20022;-63
2023/10/22 11:34:16;;;;;;;1999.90;999.90;;;;;;;;;;4973493;28;20479;-63
2023/10/22 11:36:42;;;;;;;1999.90;999.90;;;;;;;;;;4973377;28;20472;-68
2023/10/22 11:39:21;;;;;;;1999.90;999.90;;;;;;;;;;4973564;28;20370;-69
2023/10/22 11:42:02;;;;;;;1999.90;999.90;;;;;;;;;;4973216;28;20058;-69
2023/10/22 11:44:29;;;;;;;1999.90;999.90;;;;;;;;;;4973080;28;20031;-63
2023/10/22 11:46:55;;;;;;;1999.90;999.90;;;;;;;;;;4973145;28;20034;-63
2023/10/22 11:49:21;;;;;;;1999.90;999.90;;;;;;;;;;4973227;28;20035;-64
2023/10/22 11:51:47;;;;;;;1999.90;999.90;;;;;;;;;;4973080;28;20109;-63
2023/10/22 11:54:13;;;;;;;1999.90;999.90;;;;;;;;;;4972783;28;20031;-68
2023/10/22 11:56:40;;;;;;;1999.90;999.90;;;;;;;;;;4972897;28;20034;-63
2023/10/22 11:59:07;;;;;;;1999.90;999.90;;;;;;;;;;4972632;28;20029;-64
2023/10/22 12:01:33;;;;;;;1999.90;999.90;;;;;;;;;;4972764;28;20027;-64
2023/10/22 12:03:59;;;;;;;1999.90;999.90;;;;;;;;;;4972703;28;20054;-64
2023/10/22 12:06:25;;;;;;;1999.90;999.90;;;;;;;;;;4972948;28;20082;-65
2023/10/22 12:08:51;;;;;;;1999.90;999.90;;;;;;;;;;4972771;28;20038;-63
2023/10/22 12:11:17;;;;;;;1999.90;999.90;;;;;;;;;;4958821;28;20110;-64
2023/10/22 12:13:44;;;;;;;1999.90;999.90;;;;;;;;;;4953495;29;20063;-65
2023/10/22 12:16:10;;;;;;;1999.90;999.90;;;;;;;;;;4953085;29;20019;-70
2023/10/22 12:18:36;;;;;;;1999.90;999.90;;;;;;;;;;4953554;29;20472;-73
2023/10/22 12:21:02;;;;;;;1999.90;999.90;;;;;;;;;;4953608;29;20387;-64
2023/10/22 12:23:28;;;;;;;1999.90;999.90;;;;;;;;;;4953278;29;20031;-64
2023/10/22 12:25:54;;;;;;;1999.90;999.90;;;;;;;;;;4953188;29;20027;-64
2023/10/22 12:28:24;;;;;;;1999.90;999.90;;;;;;;;;;4952231;28;20034;-62
2023/10/22 12:30:50;;;;;;;1999.90;999.90;;;;;;;;;;4953116;29;20035;-63
2023/10/22 12:33:16;;;;;;;1999.90;999.90;;;;;;;;;;4953191;29;20475;-64
2023/10/22 12:35:42;;;;;;;1999.90;999.90;;;;;;;;;;4952956;29;20063;-64
2023/10/22 12:38:08;;;;;;;1999.90;999.90;;;;;;;;;;4952814;29;20098;-63
2023/10/22 12:40:35;;;;;;;1999.90;999.90;;;;;;;;;;4952981;29;20078;-64
2023/10/22 12:43:03;;;;;;;1999.90;999.90;;;;;;;;;;4952778;29;20114;-66
2023/10/22 12:45:29;;;;;;;1999.90;999.90;;;;;;;;;;4952915;29;20023;-67
2023/10/22 12:47:55;;;;;;;1999.90;999.90;;;;;;;;;;4952568;29;20031;-67
2023/10/22 12:50:21;;;;;;;1999.90;999.90;;;;;;;;;;4952461;29;20038;-67
2023/10/22 12:52:48;;;;;;;1999.90;999.90;;;;;;;;;;4953016;29;20357;-65
2023/10/22 12:55:14;;;;;;;1999.90;999.90;;;;;;;;;;4953035;29;20467;-69
2023/10/22 12:57:40;;;;;;;1999.90;999.90;;;;;;;;;;4952812;29;20069;-64
2023/10/22 13:00:09;;;;;;;1999.90;999.90;;;;;;;;;;4952917;29;20023;-70
2023/10/22 13:02:35;;;;;;;1999.90;999.90;;;;;;;;;;4952336;29;20102;-63
2023/10/22 13:05:02;;;;;;;1999.90;999.90;;;;;;;;;;4952655;29;20031;-70
2023/10/22 13:07:28;;;;;;;1999.90;999.90;;;;;;;;;;4952569;29;20383;-62
2023/10/22 13:09:54;;;;;;;1999.90;999.90;;;;;;;;;;4958399;28;20448;-62
2023/10/22 13:12:20;;;;;;;1999.90;999.90;;;;;;;;;;4971773;28;20034;-62
2023/10/22 13:14:46;;;;;;;1999.90;999.90;;;;;;;;;;4967144;28;20023;-63
2023/10/22 13:17:12;;;;;;;1999.90;999.90;;;;;;;;;;4971884;28;20106;-70
2023/10/22 13:19:38;;;;;;;1999.90;999.90;;;;;;;;;;4971963;28;20034;-63
2023/10/22 13:22:04;;;;;;;1999.90;999.90;;;;;;;;;;4971919;28;20027;-62
2023/10/22 13:24:30;;;;;;;1999.90;999.90;;;;;;;;;;4971415;28;20089;-63
2023/10/22 13:26:57;;;;;;;1999.90;999.90;;;;;;;;;;4971794;28;20065;-64
2023/10/22 13:29:23;;;;;;;1999.90;999.90;;;;;;;;;;4971538;28;20581;-64
2023/10/22 13:31:49;;;;;;;1999.90;999.90;;;;;;;;;;4971649;28;20113;-68
2023/10/22 13:34:15;;;;;;;1999.90;999.90;;;;;;;;;;4971479;28;20113;-65
2023/10/22 13:36:42;;;;;;;1999.90;999.90;;;;;;;;;;4970448;28;20034;-67
2023/10/22 13:39:09;;;;;;;1999.90;999.90;;;;;;;;;;4972732;28;20046;-63
2023/10/22 13:41:35;;;;;;;1999.90;999.90;;;;;;;;;;4975502;28;20030;-64
2023/10/22 13:44:01;;;;;;;1999.90;999.90;;;;;;;;;;4975357;28;20391;-65
2023/10/22 13:46:27;;;;;;;1999.90;999.90;;;;;;;;;;4975189;28;20411;-63
2023/10/22 13:48:53;;;;;;;1999.90;999.90;;;;;;;;;;4974829;28;20027;-63
2023/10/22 13:51:19;;;;;;;1999.90;999.90;;;;;;;;;;4975215;28;20488;-63
2023/10/22 13:53:45;;;;;;;1999.90;999.90;;;;;;;;;;4975183;28;20026;-64
2023/10/22 13:56:11;;;;;;;1999.90;999.90;;;;;;;;;;4975057;28;20035;-66
2023/10/22 13:58:37;;;;;;;1999.90;999.90;;;;;;;;;;4974656;28;20050;-62
2023/10/22 14:01:03;;;;;;;1999.90;999.90;;;;;;;;;;4974902;28;20046;-62
2023/10/22 14:03:29;;;;;;;1999.90;999.90;;;;;;;;;;4975052;28;20109;-62
2023/10/22 14:05:55;;;;;;;1999.90;999.90;;;;;;;;;;4974880;28;20034;-63
2023/10/22 14:08:21;;;;;;;1999.90;999.90;;;;;;;;;;4974557;28;20026;-70
2023/10/22 14:10:47;;;;;;;1999.90;999.90;;;;;;;;;;4974357;28;20059;-65
2023/10/22 14:13:15;;;;;;;1999.90;999.90;;;;;;;;;;4956716;28;20043;-66
2023/10/22 14:15:42;;;;;;;1999.90;999.90;;;;;;;;;;4943260;29;20031;-62
2023/10/22 14:18:08;;;;;;;1999.90;999.90;;;;;;;;;;4943319;29;20064;-67
2023/10/22 14:20:34;;;;;;;1999.90;999.90;;;;;;;;;;4963482;28;20487;-63
2023/10/22 14:23:00;;;;;;;1999.90;999.90;;;;;;;;;;4952734;28;20091;-67
2023/10/22 14:25:27;;;;;;;1999.90;999.90;;;;;;;;;;4945255;29;20035;-62
2023/10/22 14:27:53;;;;;;;1999.90;999.90;;;;;;;;;;4964112;28;20652;-66
2023/10/22 14:30:19;;;;;;;1999.90;999.90;;;;;;;;;;4963268;28;20035;-66
2023/10/22 14:32:45;;;;;;;1999.90;999.90;;;;;;;;;;4967128;28;20078;-68
2023/10/22 14:35:11;;;;;;;1999.90;999.90;;;;;;;;;;4951228;28;20058;-66
2023/10/22 14:37:38;;;;;;;1999.90;999.90;;;;;;;;;;4939687;29;20094;-69
2023/10/22 14:40:05;;;;;;;1999.90;999.90;;;;;;;;;;4935912;29;20146;-72
2023/10/22 14:42:31;;;;;;;1999.90;999.90;;;;;;;;;;4935819;29;20032;-64
2023/10/22 14:44:57;;;;;;;1999.90;999.90;;;;;;;;;;4942956;29;20070;-62
2023/10/22 14:47:23;;;;;;;1999.90;999.90;;;;;;;;;;4965650;28;20112;-67
2023/10/22 14:49:49;;;;;;;1999.90;999.90;;;;;;;;;;4965482;28;20035;-62
2023/10/22 14:52:16;;;;;;;1999.90;999.90;;;;;;;;;;4974005;28;20080;-64
2023/10/22 14:54:42;;;;;;;1999.90;999.90;;;;;;;;;;4957044;28;20026;-62
2023/10/22 14:57:08;;;;;;;1999.90;999.90;;;;;;;;;;4974166;28;21220;-70
2023/10/22 14:59:34;;;;;;;1999.90;999.90;;;;;;;;;;4955920;28;20098;-62
2023/10/22 15:02:00;;;;;;;1999.90;999.90;;;;;;;;;;4968434;28;20027;-63
2023/10/22 15:04:26;;;;;;;1999.90;999.90;;;;;;;;;;4974032;28;20041;-64
2023/10/22 15:06:52;;;;;;;1999.90;999.90;;;;;;;;;;4974207;28;20023;-62
2023/10/22 15:09:18;;;;;;;1999.90;999.90;;;;;;;;;;4973844;28;20038;-64
2023/10/22 15:11:45;;;;;;;1999.90;999.90;;;;;;;;;;4974083;28;20450;-64
2023/10/22 15:14:12;;;;;;;1999.90;999.90;;;;;;;;;;4973782;28;20026;-65
2023/10/22 15:16:42;;;;;;;1999.90;999.90;;;;;;;;;;4973699;28;20030;-64
2023/10/22 15:19:09;;;;;;;1999.90;999.90;;;;;;;;;;4973523;28;20027;-73
2023/10/22 15:21:35;;;;;;;1999.90;999.90;;;;;;;;;;4973453;28;20023;-65
2023/10/22 19:28:03;;;;;;;1999.90;999.90;;;;;;;;;;5110231;27;20475;-70
2023/10/22 19:30:29;;;;;;;1999.90;999.90;;;;;;;;;;5107873;28;20096;-74
2023/10/22 19:32:55;;;;;;;1999.90;999.90;;;;;;;;;;5107664;28;20179;-72
2023/10/22 19:35:24;;;;;;;1999.90;999.90;;;;;;;;;;5106837;28;20020;-73
2023/10/22 19:37:50;;;;;;;1999.90;999.90;;;;;;;;;;5107262;28;20084;-73
2023/10/22 19:40:16;;;;;;;1999.90;999.90;;;;;;;;;;5108051;28;20107;-73
2023/10/22 19:42:42;;;;;;;1999.90;999.90;;;;;;;;;;5108077;28;20028;-72
2023/10/22 19:45:09;;;;;;;1999.90;999.90;;;;;;;;;;5108119;28;20030;-73
2023/10/22 19:47:35;;;;;;;1999.90;999.90;;;;;;;;;;5107929;28;20066;-68
2023/10/22 19:50:01;;;;;;;1999.90;999.90;;;;;;;;;;5108082;28;20042;-68
2023/10/22 19:52:27;;;;;;;1999.90;999.90;;;;;;;;;;5107974;28;20016;-70
2023/10/22 19:54:53;;;;;;;1999.90;999.90;;;;;;;;;;5098612;28;20028;-70
2023/10/22 19:57:19;;;;;;;1999.90;999.90;;;;;;;;;;5086793;28;20033;-73
2023/10/22 19:59:45;;;;;;;1999.90;999.90;;;;;;;;;;5086855;28;20074;-65
2023/10/22 20:02:11;;;;;;;1999.90;999.90;;;;;;;;;;5090567;28;20028;-74
2023/10/22 20:04:37;;;;;;;1999.90;999.90;;;;;;;;;;5106124;28;20142;-77
2023/10/22 20:07:03;;;;;;;1999.90;999.90;;;;;;;;;;5106183;28;20067;-67
2023/10/22 20:09:29;;;;;;;1999.90;999.90;;;;;;;;;;5106502;28;20024;-70
2023/10/22 20:11:56;;;;;;;1999.90;999.90;;;;;;;;;;5106406;28;20028;-70
2023/10/22 20:14:22;;;;;;;1999.90;999.90;;;;;;;;;;5106673;28;20051;-71
2023/10/22 20:16:48;;;;;;;1999.90;999.90;;;;;;;;;;5106122;28;20386;-71
2023/10/22 20:19:14;;;;;;;1999.90;999.90;;;;;;;;;;5104577;28;20070;-68
2023/10/22 20:21:41;;;;;;;1999.90;999.90;;;;;;;;;;5106846;28;20019;-68
2023/10/22 20:24:07;;;;;;;1999.90;999.90;;;;;;;;;;5106000;28;20112;-73
2023/10/22 20:26:33;;;;;;;1999.90;999.90;;;;;;;;;;5106153;28;20189;-72
2023/10/22 20:28:59;;;;;;;1999.90;999.90;;;;;;;;;;5106666;28;20074;-75
2023/10/22 20:31:25;;;;;;;1999.90;999.90;;;;;;;;;;5106124;28;20376;-67
2023/10/22 20:33:51;;;;;;;1999.90;999.90;;;;;;;;;;5106207;28;20383;-71
2023/10/22 20:36:19;;;;;;;1999.90;999.90;;;;;;;;;;5105703;28;20486;-70
2023/10/22 20:38:46;;;;;;;1999.90;999.90;;;;;;;;;;5095958;28;20032;-67
2023/10/22 20:41:13;;;;;;;1999.90;999.90;;;;;;;;;;5093230;28;20024;-67
2023/10/22 20:43:40;;;;;;;1999.90;999.90;;;;;;;;;;5092682;28;20031;-74
2023/10/22 20:46:07;;;;;;;1999.90;999.90;;;;;;;;;;5091481;28;20450;-67
2023/10/22 20:48:34;;;;;;;1999.90;999.90;;;;;;;;;;5091994;28;20030;-68
2023/10/22 20:51:11;;;;;;;1999.90;999.90;;;;;;;;;;5092060;28;20155;-67
2023/10/22 20:53:37;;;;;;;1999.90;999.90;;;;;;;;;;5093172;28;20051;-67
2023/10/22 20:56:04;;;;;;;1999.90;999.90;;;;;;;;;;5102524;27;20122;-67
2023/10/22 20:58:34;;;;;;;1999.90;999.90;;;;;;;;;;5133768;27;20102;-67
2023/10/22 21:01:00;;;;;;;1999.90;999.90;;;;;;;;;;5133416;27;20386;-67
2023/10/22 21:03:27;;;;;;;1999.90;999.90;;;;;;;;;;5133553;27;20055;-67
2023/10/22 21:05:53;;;;;;;1999.90;999.90;;;;;;;;;;5134083;27;20015;-77
2023/10/22 21:08:19;;;;;;;1999.90;999.90;;;;;;;;;;5133755;27;20023;-68
2023/10/22 21:10:45;;;;;;;1999.90;999.90;;;;;;;;;;5132409;27;20020;-67
2023/10/22 21:13:11;;;;;;;1999.90;999.90;;;;;;;;;;5133260;27;20031;-66
2023/10/22 21:15:38;;;;;;;1999.90;999.90;;;;;;;;;;5133051;27;20023;-73
2023/10/22 21:18:04;;;;;;;1999.90;999.90;;;;;;;;;;5133107;27;20027;-66
2023/10/22 21:20:30;;;;;;;1999.90;999.90;;;;;;;;;;5132833;27;20385;-66
2023/10/22 21:22:56;;;;;;;1999.90;999.90;;;;;;;;;;5132970;27;20031;-66
2023/10/22 21:25:22;;;;;;;1999.90;999.90;;;;;;;;;;5132749;27;20094;-66
2023/10/22 21:27:49;;;;;;;1999.90;999.90;;;;;;;;;;5132321;27;20112;-66
2023/10/22 21:30:15;;;;;;;1999.90;999.90;;;;;;;;;;5133076;27;20027;-66
2023/10/22 21:32:41;;;;;;;1999.90;999.90;;;;;;;;;;5153877;27;20441;-65
2023/10/22 21:35:08;;;;;;;1999.90;999.90;;;;;;;;;;5153797;27;20038;-66
2023/10/22 21:37:34;;;;;;;1999.90;999.90;;;;;;;;;;5135144;27;20025;-65
2023/10/22 21:40:04;;;;;;;1999.90;999.90;;;;;;;;;;5153945;27;20026;-65
2023/10/22 21:42:30;;;;;;;1999.90;999.90;;;;;;;;;;5153966;27;20469;-65
2023/10/22 21:44:57;;;;;;;1999.90;999.90;;;;;;;;;;5153933;27;20061;-66
2023/10/22 21:47:23;;;;;;;1999.90;999.90;;;;;;;;;;5153060;27;20034;-65
2023/10/22 21:49:49;;;;;;;1999.90;999.90;;;;;;;;;;5152496;27;20023;-66
2023/10/22 21:52:15;;;;;;;1999.90;999.90;;;;;;;;;;5153607;27;20069;-65
2023/10/22 21:54:41;;;;;;;1999.90;999.90;;;;;;;;;;5153126;27;20021;-66
2023/10/22 21:57:07;;;;;;;1999.90;999.90;;;;;;;;;;5153932;27;20045;-70
2023/10/22 21:59:33;;;;;;;1999.90;999.90;;;;;;;;;;5153760;27;20021;-65
2023/10/22 22:02:02;;;;;;;1999.90;999.90;;;;;;;;;;5153041;27;20025;-65
2023/10/22 22:04:28;;;;;;;1999.90;999.90;;;;;;;;;;5153819;27;20062;-65
